Pagrindinis puslapis
METAR-TAF:

METAR-TAF

Oro uostai :

Dumaguete, Filipinai

platuma: 09-20-01N, ilguma: 123-18-02E, Aukštis: 5 m

Dabartinis oras

Ataskaita buvo paskelbta 39 minutes, ne 08:00 UTC
Vėjas 10 kt iš Šiaurės/Šiaurės Vakarų
Temperatūra 29°C
Drėgmė 74%
Slėgis 1011 hPa
Matomumas 10 km arba daugiau
Mažai debesys ne aukštis 1500 ft
Su prošvaistėmis ne aukštis 8000 ft

METAR: RPVD 230800Z 34010KT 9999 FEW015 BKN080 29/24 Q1011 RMK A2985

Laikas: 16:39 (08:39 UTC)

Prognozė

Ataskaita buvo paskelbta 3 valandos ir 39 minutes, ne 05:00 UTC
Prognozė galioja nuo 23 metu 06 UTC su 24 metu 06 UTC
Vėjas 10 kt iš Šiaurės/Šiaurės Rytų
Matomumas 10 km arba daugiau
Mažai debesys ne aukštis 1500 ft
Laikinai
nuo 23 metu 06 UTC su 23 metu 12 UTC
Vėjas 13 kt iš Šiaurės Rytų
Laikinai
nuo 24 metu 00 UTC su 24 metu 06 UTC
Vėjas 12 kt iš Šiaurės Rytų
Mažai debesys ne aukštis 1500 ft
Išsisklaidę debesys ne aukštis 22000 ft

TAF: RPVD 230500Z 2306/2406 03010KT 9999 FEW015 TEMPO 2306/2312 04013KT TEMPO 2400/2406 05012KT FEW015 SCT220

Orai ataskaitas ir orų prognozės (METAR, TAF).

turimą stotys yra geltonos ir raudonos taškus žemėlapyje.

Perkelti pele per norėdami pamatyti stoties vardą.

Tada spustelėkite, norėdami matyti oro stebėjimo ir prognozės.

Norėdami pakeisti žemėlapį: spustelėkite ant žalios mygtukų su juodo kryžiaus žemyn,; žalią mygtuką su brūkšneliu, jei norite nutolinti; arba žalių rodyklių gretimoms žemėlapius.


METAR-TAF: